Time;durP1;ratioP1;P1;durP2;ratioP2;P2;SDS_P1;SDS_P2;PMS_P1;PMS_P2;Temp;Humidity;BMP_temperature;BMP_pressure;BME280_temperature;BME280_humidity;BME280_pressure;Samples;Min_cycle;Max_cycle;Signal;HPM_P1;HPM_P2
2022/12/28 00:00:46;;;;;;;10.70;6.20;;;;;;;7.74;69.56;100405.44;5112592;28;20100;-73
2022/12/28 00:03:12;;;;;;;10.85;5.90;;;;;;;7.67;69.63;100404.94;5094039;28;20034;-73
2022/12/28 00:05:37;;;;;;;9.90;5.53;;;;;;;7.71;70.05;100411.59;5112997;28;20126;-73
2022/12/28 00:08:03;;;;;;;8.48;5.43;;;;;;;7.73;69.28;100400.97;5128951;27;20024;-73
2022/12/28 00:10:29;;;;;;;8.82;5.00;;;;;;;7.83;67.53;100402.81;5114215;28;20023;-73
2022/12/28 00:12:55;;;;;;;6.53;4.82;;;;;;;7.90;67.44;100402.47;5114098;28;20039;-74
2022/12/28 00:15:20;;;;;;;7.13;5.28;;;;;;;7.99;66.43;100403.50;5112422;28;20015;-74
2022/12/28 00:17:46;;;;;;;8.40;5.57;;;;;;;8.21;64.79;100414.16;5104363;28;20032;-73
2022/12/28 00:20:12;;;;;;;6.25;4.40;;;;;;;8.31;63.52;100407.63;5100105;28;20019;-73
2022/12/28 00:22:37;;;;;;;6.93;4.20;;;;;;;8.38;62.79;100416.44;5110339;28;20585;-73
2022/12/28 00:25:03;;;;;;;8.73;5.15;;;;;;;8.47;62.26;100410.22;5113551;28;20024;-73
2022/12/28 00:27:29;;;;;;;7.88;4.97;;;;;;;8.57;61.80;100432.44;5113957;28;20019;-73
2022/12/28 00:29:54;;;;;;;13.88;8.45;;;;;;;8.52;61.89;100419.38;5113703;28;20127;-73
2022/12/28 00:32:20;;;;;;;9.20;5.88;;;;;;;8.57;61.84;100429.63;5112442;28;20026;-73
2022/12/28 00:34:45;;;;;;;6.53;5.07;;;;;;;8.50;61.90;100421.63;5110965;28;20030;-73
2022/12/28 00:37:11;;;;;;;6.07;4.32;;;;;;;8.39;62.19;100417.28;5113680;28;20465;-73
2022/12/28 00:39:36;;;;;;;6.47;4.80;;;;;;;8.25;63.24;100426.34;5113603;28;20023;-73
2022/12/28 00:42:02;;;;;;;8.85;4.60;;;;;;;8.23;63.44;100439.78;5105083;28;20034;-73
2022/12/28 00:44:28;;;;;;;8.77;5.10;;;;;;;8.17;63.72;100440.94;5123431;27;20065;-73
2022/12/28 00:46:54;;;;;;;8.70;5.82;;;;;;;8.18;63.27;100445.38;5112673;28;20027;-73
2022/12/28 00:49:20;;;;;;;8.20;4.90;;;;;;;8.27;62.67;100446.41;5111264;28;20489;-73
2022/12/28 00:51:45;;;;;;;8.63;5.90;;;;;;;8.17;62.49;100443.72;5112287;28;20028;-73
2022/12/28 00:54:11;;;;;;;9.73;6.10;;;;;;;8.21;62.31;100453.16;5110950;28;20020;-73
2022/12/28 00:56:38;;;;;;;11.52;7.03;;;;;;;8.21;62.16;100446.75;5111960;28;20023;-73
2022/12/28 00:59:04;;;;;;;11.65;6.82;;;;;;;8.33;61.94;100455.53;5112322;27;20055;-73
2022/12/28 01:01:29;;;;;;;9.63;5.85;;;;;;;8.39;61.05;100442.38;5110887;28;20038;-74
2022/12/28 01:03:56;;;;;;;8.80;6.10;;;;;;;8.59;61.68;100446.09;5112148;28;20026;-73
2022/12/28 01:06:21;;;;;;;12.50;9.20;;;;;;;8.57;60.97;100438.00;5112430;28;20486;-73
2022/12/28 01:08:47;;;;;;;11.60;8.45;;;;;;;8.67;61.06;100442.63;5112859;28;20023;-73
2022/12/28 01:11:19;;;;;;;10.07;6.75;;;;;;;8.76;60.50;100446.41;5111761;28;20023;-74
2022/12/28 01:13:45;;;;;;;9.50;6.45;;;;;;;8.87;60.12;100441.53;5110768;28;20032;-74
2022/12/28 01:16:12;;;;;;;10.30;6.03;;;;;;;8.95;59.00;100452.00;5112229;28;20034;-73
2022/12/28 01:18:37;;;;;;;9.15;5.55;;;;;;;8.83;59.70;100457.19;5109779;28;20019;-74
2022/12/28 01:21:18;;;;;;;8.32;5.07;;;;;;;8.69;60.07;100446.78;5103388;27;20027;-73
2022/12/28 01:23:44;;;;;;;10.85;6.30;;;;;;;8.66;60.58;100443.75;5112789;28;20033;-73
2022/12/28 01:26:10;;;;;;;14.18;7.43;;;;;;;8.65;60.23;100451.31;5111372;28;20066;-74
2022/12/28 01:28:35;;;;;;;12.10;6.60;;;;;;;8.55;59.65;100451.41;5111599;28;20027;-73
2022/12/28 01:31:12;;;;;;;30.58;19.80;;;;;;;8.21;59.97;100447.59;5109938;28;20038;-73
2022/12/28 01:33:37;;;;;;;20.50;13.38;;;;;;;8.00;61.16;100436.66;5111133;28;20133;-73
2022/12/28 01:36:18;;;;;;;7.70;5.80;;;;;;;7.96;61.25;100441.16;5109706;28;20028;-74
2022/12/28 01:38:44;;;;;;;9.90;5.55;;;;;;;7.95;61.21;100439.47;5125728;27;20023;-73
2022/12/28 01:41:15;;;;;;;12.65;8.20;;;;;;;7.85;62.32;100445.97;5112257;28;20054;-74
2022/12/28 01:44:09;;;;;;;23.17;14.98;;;;;;;7.86;62.20;100444.03;5112419;28;20383;-73
2022/12/28 01:46:37;;;;;;;15.68;8.45;;;;;;;7.88;62.01;100450.16;5110775;28;20486;-73
2022/12/28 01:49:17;;;;;;;16.48;8.32;;;;;;;7.85;61.79;100447.97;5112191;28;20015;-73
2022/12/28 01:51:45;;;;;;;;;;;;;;;7.86;61.45;100452.41;5112121;28;20078;-74
2022/12/28 01:54:11;;;;;;;10.10;6.70;;;;;;;7.89;62.17;100443.44;5110829;28;19912;-73
2022/12/28 01:56:38;;;;;;;9.65;6.45;;;;;;;7.82;61.41;100448.53;5105285;28;20031;-73
2022/12/28 01:59:04;;;;;;;12.25;6.35;;;;;;;7.84;61.21;100454.63;5106888;28;20437;-73
2022/12/28 02:01:30;;;;;;;11.80;6.43;;;;;;;7.96;61.05;100449.53;5109282;28;20019;-73
2022/12/28 02:03:56;;;;;;;11.75;7.35;;;;;;;8.07;60.25;100449.41;5110768;28;20524;-74
2022/12/28 02:06:21;;;;;;;15.18;7.75;;;;;;;8.17;60.38;100438.16;5110711;28;20024;-73
2022/12/28 02:09:02;;;;;;;13.68;6.93;;;;;;;8.12;61.03;100443.78;5111967;28;20391;-73
2022/12/28 02:11:28;;;;;;;7.38;5.65;;;;;;;8.27;60.22;100440.81;5110039;28;20027;-74
2022/12/28 02:13:56;;;;;;;8.63;6.20;;;;;;;8.28;59.86;100424.94;5109417;28;20561;-74
2022/12/28 02:16:22;;;;;;;8.65;5.75;;;;;;;8.33;59.55;100429.63;5106524;28;20122;-73
2022/12/28 02:18:47;;;;;;;14.52;7.18;;;;;;;8.37;58.44;100442.66;5110939;28;20027;-74
2022/12/28 02:21:21;;;;;;;9.77;6.75;;;;;;;8.42;57.86;100450.13;5110900;28;20478;-73
2022/12/28 02:24:05;;;;;;;15.30;7.13;;;;;;;8.49;58.32;100445.03;5111825;28;20164;-74
2022/12/28 02:26:49;;;;;;;9.68;6.03;;;;;;;8.45;57.65;100440.34;5111826;28;20489;-74
2022/12/28 02:30:02;;;;;;;9.32;5.95;;;;;;;8.45;56.77;100427.25;5110987;28;20114;-74
2022/12/28 02:32:49;;;;;;;9.68;6.68;;;;;;;8.49;56.14;100428.31;5067181;28;20052;-74
2022/12/28 02:35:23;;;;;;;8.50;5.57;;;;;;;8.49;55.73;100430.25;5111722;28;20100;-74
2022/12/28 02:38:08;;;;;;;7.85;5.35;;;;;;;8.24;56.03;100421.06;5110391;28;20034;-74
2022/12/28 02:40:49;;;;;;;9.25;6.30;;;;;;;8.28;55.58;100425.75;5111736;28;20462;-74
2022/12/28 02:43:14;;;;;;;12.48;7.68;;;;;;;8.29;56.36;100430.22;5110658;28;20028;-74
2022/12/28 02:52:02;;;;;;;16.38;10.70;;;;;;;8.34;55.37;100434.09;5107379;28;20046;-74
2022/12/28 02:57:54;;;;;;;10.23;7.00;;;;;;;8.27;56.56;100431.66;5111924;28;20055;-74
2022/12/28 03:00:23;;;;;;;8.88;6.88;;;;;;;8.25;56.64;100426.34;5111511;28;20034;-74
2022/12/28 03:03:06;;;;;;;7.55;5.10;;;;;;;8.24;56.43;100427.50;5110524;28;20103;-74
2022/12/28 03:09:01;;;;;;;7.97;5.97;;;;;;;8.29;56.32;100434.97;5109998;28;20038;-74
2022/12/28 03:11:52;;;;;;;9.73;6.32;;;;;;;8.15;56.38;100430.09;5113921;28;20024;-74
2022/12/28 03:14:28;;;;;;;8.70;6.68;;;;;;;8.21;57.03;100436.44;5104426;28;20089;-74
2022/12/28 03:31:08;;;;;;;11.20;6.90;;;;;;;8.41;56.36;100449.31;5114768;28;20119;-74
2022/12/28 03:33:37;;;;;;;11.70;7.88;;;;;;;8.40;57.03;100449.59;5112635;28;20410;-74
2022/12/28 03:36:10;;;;;;;12.75;8.32;;;;;;;8.53;56.66;100448.09;5114877;28;20102;-74
2022/12/28 03:39:02;;;;;;;12.88;7.30;;;;;;;8.60;56.67;100447.75;5114853;28;20038;-74
2022/12/28 03:41:38;;;;;;;13.20;7.38;;;;;;;8.50;56.94;100443.94;5114733;28;20483;-74
2022/12/28 03:44:12;;;;;;;12.35;7.45;;;;;;;8.58;56.34;100436.88;5114690;28;20041;-74
2022/12/28 03:46:37;;;;;;;11.80;8.43;;;;;;;8.48;55.87;100440.59;5111656;28;20500;-74
2022/12/28 03:49:03;;;;;;;13.20;7.55;;;;;;;8.46;56.15;100437.28;5113595;28;20031;-74
2022/12/28 03:51:31;;;;;;;13.85;8.43;;;;;;;8.42;56.61;100448.19;5113169;28;20030;-74
2022/12/28 03:53:57;;;;;;;13.93;7.60;;;;;;;8.41;57.02;100445.69;5114337;28;20028;-74
2022/12/28 03:56:25;;;;;;;15.60;10.32;;;;;;;8.40;57.40;100446.81;5113578;28;20031;-74
2022/12/28 03:58:51;;;;;;;14.05;9.10;;;;;;;8.07;57.17;100447.44;5113195;28;20016;-74
2022/12/28 04:01:18;;;;;;;11.57;8.38;;;;;;;8.13;57.68;100449.03;5112801;28;20023;-74
2022/12/28 04:03:44;;;;;;;11.35;8.32;;;;;;;8.13;57.25;100446.25;5113714;28;20118;-74
2022/12/28 04:06:15;;;;;;;11.05;8.20;;;;;;;8.24;57.46;100447.00;5112289;28;20518;-74
2022/12/28 04:08:42;;;;;;;10.23;7.93;;;;;;;8.25;57.30;100456.19;5128875;27;20489;-74
2022/12/28 04:11:08;;;;;;;11.48;8.45;;;;;;;8.33;57.00;100452.75;5113519;28;20023;-74
2022/12/28 04:13:34;;;;;;;13.00;9.27;;;;;;;8.38;56.31;100441.53;5112863;28;20084;-74
2022/12/28 04:16:09;;;;;;;9.90;7.53;;;;;;;8.49;55.57;100450.63;5114078;28;20167;-74
2022/12/28 04:18:34;;;;;;;12.00;8.00;;;;;;;8.49;55.95;100445.03;5094702;28;20573;-74
2022/12/28 04:21:01;;;;;;;10.10;6.53;;;;;;;8.49;55.75;100453.41;5111478;28;20023;-74
2022/12/28 04:23:27;;;;;;;11.02;6.85;;;;;;;8.40;54.39;100453.25;5114262;28;20024;-74
2022/12/28 04:26:01;;;;;;;7.72;6.47;;;;;;;8.35;54.29;100447.72;5112965;28;20031;-74
2022/12/28 04:28:27;;;;;;;11.85;7.30;;;;;;;8.50;53.88;100457.00;5114095;28;20495;-74
2022/12/28 04:30:52;;;;;;;8.70;6.30;;;;;;;8.39;54.13;100451.59;5113175;28;20492;-74
2022/12/28 04:33:18;;;;;;;14.15;7.68;;;;;;;8.34;54.34;100456.38;5113124;28;20031;-74
2022/12/28 04:35:44;;;;;;;14.98;7.35;;;;;;;8.27;54.64;100451.16;5113699;28;20023;-74
2022/12/28 04:38:09;;;;;;;11.52;5.85;;;;;;;8.23;54.50;100448.13;5111714;28;20371;-74
2022/12/28 04:40:35;;;;;;;9.63;7.00;;;;;;;8.43;54.25;100457.38;5111752;28;20027;-74
2022/12/28 04:43:00;;;;;;;9.75;7.03;;;;;;;8.32;54.41;100455.81;5111994;28;20486;-74
2022/12/28 04:45:26;;;;;;;11.57;8.13;;;;;;;8.31;55.17;100443.84;5112278;28;20019;-74
2022/12/28 04:47:55;;;;;;;14.05;6.57;;;;;;;8.34;55.24;100456.38;5110841;28;20032;-74
2022/12/28 04:50:21;;;;;;;13.23;6.50;;;;;;;8.34;55.30;100461.97;5112492;27;20157;-74
2022/12/28 04:52:46;;;;;;;8.95;6.40;;;;;;;8.37;54.98;100464.16;5113362;28;20414;-74
2022/12/28 04:55:12;;;;;;;11.35;7.28;;;;;;;8.27;55.30;100465.09;5111911;28;20075;-74
2022/12/28 04:57:37;;;;;;;7.82;5.93;;;;;;;8.31;55.35;100470.88;5112942;28;20024;-74
2022/12/28 05:00:03;;;;;;;8.70;5.72;;;;;;;8.36;55.48;100474.44;5113374;28;20509;-74
2022/12/28 05:02:29;;;;;;;12.25;6.50;;;;;;;8.33;55.35;100471.44;5111790;28;20031;-72
2022/12/28 05:04:55;;;;;;;14.25;7.30;;;;;;;8.37;55.69;100480.88;5109584;28;20032;-75
2022/12/28 05:07:20;;;;;;;15.65;7.40;;;;;;;8.37;55.61;100478.91;5128787;27;20050;-74
2022/12/28 05:09:46;;;;;;;16.45;9.20;;;;;;;8.38;55.68;100485.31;5127994;27;20103;-74
2022/12/28 05:12:11;;;;;;;18.45;10.57;;;;;;;8.28;55.59;100492.66;5112991;28;20486;-74
2022/12/28 05:14:37;;;;;;;28.35;12.77;;;;;;;8.29;56.31;100497.09;5112987;28;20496;-73
2022/12/28 05:17:02;;;;;;;25.40;13.77;;;;;;;8.21;56.17;100494.97;5098061;28;20482;-73
2022/12/28 05:19:28;;;;;;;34.80;16.45;;;;;;;7.99;56.26;100478.72;5109016;28;20023;-73
2022/12/28 05:21:53;;;;;;;24.20;9.32;;;;;;;8.03;56.45;100495.69;5103096;28;20030;-73
2022/12/28 05:24:19;;;;;;;17.48;8.40;;;;;;;8.16;56.68;100492.22;5127690;27;20042;-74
2022/12/28 05:26:44;;;;;;;16.88;9.40;;;;;;;8.07;56.20;100491.19;5111191;28;20024;-72
2022/12/28 05:29:10;;;;;;;19.98;11.52;;;;;;;8.01;56.55;100496.81;5112752;28;20020;-72
2022/12/28 05:31:36;;;;;;;36.45;19.77;;;;;;;8.01;56.39;100494.03;5109990;28;20030;-73
2022/12/28 05:34:02;;;;;;;22.65;13.55;;;;;;;7.98;56.56;100494.63;5100639;28;20023;-73
2022/12/28 05:36:27;;;;;;;14.50;9.27;;;;;;;7.86;56.59;100480.25;5097342;28;20039;-73
2022/12/28 05:38:54;;;;;;;18.08;10.30;;;;;;;7.89;57.32;100496.38;5112389;28;20402;-73
2022/12/28 05:41:21;;;;;;;15.65;10.63;;;;;;;7.73;57.88;100498.47;5110864;28;20027;-73
2022/12/28 05:43:48;;;;;;;17.30;11.43;;;;;;;7.71;57.95;100490.38;5104550;28;20077;-73
2022/12/28 05:46:29;;;;;;;15.98;11.02;;;;;;;7.63;58.60;100496.59;5112361;28;20032;-73
2022/12/28 05:48:55;;;;;;;22.52;10.63;;;;;;;7.66;58.57;100503.50;5106935;28;20027;-73
2022/12/28 05:51:23;;;;;;;17.08;10.27;;;;;;;7.65;58.57;100501.84;5107372;28;20042;-73
2022/12/28 05:53:48;;;;;;;25.17;13.38;;;;;;;7.63;59.19;100499.38;5109615;28;20027;-73
2022/12/28 05:56:20;;;;;;;18.88;11.38;;;;;;;7.66;59.15;100496.00;5108433;28;20063;-73
2022/12/28 05:58:51;;;;;;;14.82;10.27;;;;;;;7.60;59.09;100511.06;5109562;28;20027;-73
2022/12/28 06:01:19;;;;;;;16.80;11.55;;;;;;;7.59;59.34;100515.81;5108389;28;20042;-73
2022/12/28 06:03:46;;;;;;;16.73;11.40;;;;;;;7.80;58.49;100526.81;5108252;28;20062;-71
2022/12/28 06:06:17;;;;;;;25.27;14.70;;;;;;;7.73;58.45;100523.53;5107344;28;20481;-73
2022/12/28 06:08:43;;;;;;;;;;;;;;;7.85;58.15;100529.56;5107081;28;20027;-73
2022/12/28 06:11:11;;;;;;;27.00;16.05;;;;;;;7.91;58.33;100535.09;5106206;28;20067;-71
2022/12/28 06:13:37;;;;;;;34.97;18.40;;;;;;;8.01;57.72;100527.47;5106905;28;20054;-71
2022/12/28 06:16:07;;;;;;;36.92;21.77;;;;;;;8.15;58.65;100537.94;5107924;28;20027;-72
2022/12/28 06:18:33;;;;;;;48.10;27.00;;;;;;;8.09;59.08;100537.16;5108044;28;20122;-72
2022/12/28 06:21:07;;;;;;;49.10;27.77;;;;;;;8.17;58.95;100543.25;5109345;28;20561;-72
2022/12/28 06:23:33;;;;;;;61.08;25.63;;;;;;;8.21;59.54;100536.78;5108174;28;20035;-73
2022/12/28 06:26:00;;;;;;;33.80;21.50;;;;;;;8.15;59.73;100540.72;5106814;28;20034;-73
2022/12/28 06:28:26;;;;;;;29.58;16.80;;;;;;;7.96;59.00;100547.03;5106837;28;20127;-71
2022/12/28 06:30:59;;;;;;;62.70;35.58;;;;;;;7.88;59.51;100539.28;5108158;28;20498;-72
2022/12/28 06:33:25;;;;;;;73.28;39.13;;;;;;;7.97;59.06;100548.69;5109046;28;20507;-72
2022/12/28 06:35:50;;;;;;;66.28;34.17;;;;;;;8.12;59.02;100546.91;5108988;28;20055;-72
2022/12/28 06:38:16;;;;;;;57.25;32.00;;;;;;;8.15;58.70;100543.50;5107517;28;20035;-73
2022/12/28 06:40:41;;;;;;;81.40;46.53;;;;;;;8.24;58.74;100547.34;5107148;28;20036;-72
2022/12/28 06:43:06;;;;;;;55.63;31.60;;;;;;;8.21;59.04;100550.72;5107973;28;20039;-72
2022/12/28 06:45:32;;;;;;;30.05;16.45;;;;;;;8.26;58.16;100547.88;5109812;28;20034;-71
2022/12/28 06:47:57;;;;;;;33.83;21.15;;;;;;;8.22;58.30;100543.19;5112974;28;20035;-72
2022/12/28 06:50:23;;;;;;;41.95;21.25;;;;;;;8.31;58.38;100541.44;5111980;28;20019;-72
2022/12/28 06:52:48;;;;;;;72.43;34.85;;;;;;;8.14;59.56;100537.13;5112999;28;20403;-72
2022/12/28 06:55:14;;;;;;;50.45;23.05;;;;;;;8.10;59.22;100538.00;5111461;28;20398;-71
2022/12/28 06:57:39;;;;;;;70.00;31.60;;;;;;;7.98;60.12;100544.78;5112925;28;20098;-71
2022/12/28 07:00:05;;;;;;;94.45;40.95;;;;;;;8.05;59.98;100551.97;5111545;28;20509;-72
2022/12/28 07:02:31;;;;;;;77.57;35.15;;;;;;;8.11;59.68;100553.59;5106615;28;20557;-72
2022/12/28 07:04:56;;;;;;;46.00;22.55;;;;;;;7.95;60.57;100550.91;5100985;27;20165;-72
2022/12/28 07:07:22;;;;;;;100.20;42.17;;;;;;;7.78;61.71;100544.94;5105690;28;20030;-71
2022/12/28 07:09:47;;;;;;;66.25;28.50;;;;;;;7.71;62.00;100546.09;5092254;28;20024;-69
2022/12/28 07:12:13;;;;;;;42.55;20.80;;;;;;;7.81;61.72;100549.91;5100006;28;20134;-70
2022/12/28 07:14:38;;;;;;;36.75;17.20;;;;;;;7.86;62.03;100555.47;5103349;28;20026;-72
2022/12/28 07:17:03;;;;;;;32.03;16.63;;;;;;;7.90;61.96;100556.53;5098946;28;20047;-71
2022/12/28 07:19:29;;;;;;;34.35;14.27;;;;;;;8.07;62.60;100567.28;5094234;28;20502;-72
2022/12/28 07:21:55;;;;;;;28.40;15.70;;;;;;;8.18;62.21;100548.50;5109919;28;20485;-69
2022/12/28 07:24:20;;;;;;;24.90;12.60;;;;;;;8.36;62.03;100551.69;5110206;28;20492;-70
2022/12/28 07:26:47;;;;;;;27.52;14.73;;;;;;;8.45;61.37;100549.94;5104563;28;20111;-72
2022/12/28 07:29:13;;;;;;;30.13;17.48;;;;;;;8.33;62.43;100557.88;5103217;28;20039;-71
2022/12/28 07:31:39;;;;;;;27.88;17.15;;;;;;;8.31;62.41;100563.72;5101569;28;20383;-72
2022/12/28 07:34:05;;;;;;;32.08;18.85;;;;;;;8.28;62.14;100565.13;5092117;28;20028;-75
2022/12/28 07:36:31;;;;;;;42.13;21.00;;;;;;;8.59;61.81;100561.25;5108315;28;20120;-73
2022/12/28 07:38:58;;;;;;;30.08;17.55;;;;;;;8.57;61.35;100563.50;5110611;28;20043;-74
2022/12/28 07:41:26;;;;;;;36.83;16.98;;;;;;;8.68;61.51;100572.56;5096273;28;20028;-73
2022/12/28 07:43:53;;;;;;;28.42;16.73;;;;;;;8.70;61.21;100565.59;5099433;28;20521;-74
2022/12/28 07:46:24;;;;;;;33.95;22.42;;;;;;;8.82;60.09;100565.19;5111148;28;20452;-72
2022/12/28 07:48:51;;;;;;;32.25;19.83;;;;;;;8.91;59.76;100579.31;5110004;28;20106;-72
2022/12/28 07:51:28;;;;;;;34.90;19.17;;;;;;;8.90;60.29;100579.59;5096079;28;20123;-69
2022/12/28 07:53:56;;;;;;;34.90;19.63;;;;;;;9.06;60.49;100585.84;5102498;28;20035;-72
2022/12/28 07:56:23;;;;;;;43.42;22.88;;;;;;;9.13;60.58;100584.34;5093165;28;20032;-73
2022/12/28 07:58:50;;;;;;;335.38;139.35;;;;;;;9.08;60.29;100581.63;5094314;28;20030;-73
2022/12/28 08:01:18;;;;;;;269.15;113.03;;;;;;;9.16;60.99;100582.09;5110692;28;20088;-73
2022/12/28 08:03:44;;;;;;;120.68;52.90;;;;;;;9.01;60.67;100583.13;5110431;28;20443;-74
2022/12/28 08:06:13;;;;;;;89.55;42.45;;;;;;;8.96;60.89;100584.81;5107890;28;20020;-74
2022/12/28 08:08:44;;;;;;;80.68;43.40;;;;;;;8.68;61.89;100595.75;5110011;28;20028;-72
2022/12/28 08:11:15;;;;;;;92.43;55.90;;;;;;;8.46;62.60;100596.22;5110418;27;20027;-71
2022/12/28 08:13:44;;;;;;;68.90;35.40;;;;;;;8.50;62.05;100582.50;5108386;28;20032;-74
2022/12/28 08:16:12;;;;;;;64.57;37.10;;;;;;;8.52;62.93;100591.44;5111337;28;20019;-74
2022/12/28 08:18:39;;;;;;;64.22;38.53;;;;;;;8.59;63.38;100583.56;5108645;28;20106;-76
2022/12/28 08:21:07;;;;;;;46.20;28.75;;;;;;;8.70;62.70;100587.09;5109098;28;20062;-75
2022/12/28 08:23:33;;;;;;;38.63;16.90;;;;;;;8.62;62.68;100587.72;5109516;28;20027;-75
2022/12/28 08:26:10;;;;;;;26.92;15.05;;;;;;;8.69;62.49;100602.16;5109345;28;20118;-72
2022/12/28 08:28:36;;;;;;;34.63;23.08;;;;;;;8.89;62.67;100595.53;5106596;28;20019;-74
2022/12/28 08:31:07;;;;;;;61.63;39.22;;;;;;;8.97;62.21;100599.63;5108998;28;20504;-74
2022/12/28 08:33:32;;;;;;;;;;;;;;;9.02;61.97;100602.34;5109793;28;20019;-74
2022/12/28 08:35:57;;;;;;;155.48;98.57;;;;;;;8.88;62.54;100605.03;5108924;28;19967;-72
2022/12/28 08:38:23;;;;;;;78.85;39.50;;;;;;;8.92;62.57;100603.31;5103049;28;20382;-73
2022/12/28 08:40:56;;;;;;;37.40;22.13;;;;;;;8.99;63.04;100616.91;5108340;28;20030;-76
2022/12/28 08:43:22;;;;;;;45.67;21.27;;;;;;;8.89;62.83;100605.84;5106168;28;20532;-75
2022/12/28 08:46:04;;;;;;;36.17;19.80;;;;;;;8.95;63.30;100615.84;5109184;28;20517;-73
2022/12/28 08:48:30;;;;;;;37.22;19.05;;;;;;;9.01;63.26;100603.47;5109017;28;20023;-74
2022/12/28 08:51:08;;;;;;;30.80;16.10;;;;;;;9.12;62.74;100601.41;5108711;28;20481;-72
2022/12/28 08:53:34;;;;;;;37.60;19.38;;;;;;;9.02;63.24;100601.53;5108347;28;20023;-76
2022/12/28 08:56:12;;;;;;;42.47;21.55;;;;;;;9.11;64.07;100608.94;5107622;28;20055;-74
2022/12/28 08:58:39;;;;;;;66.63;35.47;;;;;;;8.94;65.08;100620.56;5108194;28;20114;-73
2022/12/28 09:01:07;;;;;;;40.05;23.98;;;;;;;8.79;66.90;100632.72;5107551;28;20028;-71
2022/12/28 09:03:37;;;;;;;32.97;21.00;;;;;;;8.72;68.29;100635.03;5108520;28;20031;-73
2022/12/28 09:06:08;;;;;;;26.48;16.90;;;;;;;8.90;67.18;100629.81;5107637;28;20034;-72
2022/12/28 09:08:34;;;;;;;33.08;17.15;;;;;;;9.02;67.49;100640.59;5105745;28;20036;-76
2022/12/28 09:11:02;;;;;;;24.98;15.43;;;;;;;9.11;66.68;100650.81;5106430;28;20030;-73
2022/12/28 09:13:28;;;;;;;31.20;15.30;;;;;;;9.09;66.54;100641.91;5105406;28;20034;-74
2022/12/28 09:15:58;;;;;;;36.33;17.23;;;;;;;9.05;67.77;100640.84;5108189;28;20114;-75
2022/12/28 09:18:24;;;;;;;54.42;23.10;;;;;;;8.93;69.31;100634.81;5102828;28;20027;-73
2022/12/28 09:20:50;;;;;;;53.13;25.15;;;;;;;9.04;69.44;100630.78;5101337;28;20034;-74
2022/12/28 09:23:15;;;;;;;42.92;24.30;;;;;;;9.05;70.40;100632.47;5103766;28;20106;-74
2022/12/28 09:25:40;;;;;;;56.47;29.35;;;;;;;9.01;70.87;100622.19;5101125;28;20031;-73
2022/12/28 09:28:06;;;;;;;60.45;36.45;;;;;;;8.96;70.28;100628.66;5107011;28;20023;-74
2022/12/28 09:30:31;;;;;;;40.53;27.35;;;;;;;8.77;70.77;100631.38;5109439;28;20041;-74
2022/12/28 09:35:41;;;;;;;60.50;35.92;;;;;;;8.90;70.35;100621.44;5109953;28;20062;-74
2022/12/28 09:38:06;;;;;;;58.58;34.67;;;;;;;8.95;69.80;100610.25;5107226;28;20486;-73
2022/12/28 09:40:33;;;;;;;65.75;35.85;;;;;;;9.06;69.37;100622.97;5107908;28;20438;-72
2022/12/28 09:42:59;;;;;;;68.57;38.60;;;;;;;9.18;69.11;100616.13;5106554;28;20023;-73
2022/12/28 09:45:25;;;;;;;52.92;30.30;;;;;;;9.25;69.34;100625.81;5108348;28;20100;-72
2022/12/28 09:47:54;;;;;;;54.55;31.63;;;;;;;9.29;68.78;100608.47;5109401;28;20027;-71
2022/12/28 09:50:28;;;;;;;49.45;28.85;;;;;;;9.28;68.39;100616.00;5108261;28;20024;-71
2022/12/28 09:53:22;;;;;;;33.35;21.90;;;;;;;9.32;68.19;100617.06;5107810;28;20036;-73
2022/12/28 09:56:03;;;;;;;29.77;19.38;;;;;;;9.26;67.22;100613.50;5106034;28;20048;-71
2022/12/28 09:58:32;;;;;;;33.65;20.52;;;;;;;9.31;66.36;100623.78;5108299;28;20046;-72
2022/12/28 10:01:10;;;;;;;31.20;20.88;;;;;;;9.55;66.68;100626.53;5107847;28;20523;-72
2022/12/28 10:03:40;;;;;;;33.05;21.00;;;;;;;9.78;65.65;100620.38;5107100;28;20050;-71
2022/12/28 10:06:17;;;;;;;31.90;17.92;;;;;;;9.89;65.34;100609.88;5102852;28;20032;-74
2022/12/28 10:08:48;;;;;;;37.17;18.80;;;;;;;9.95;64.97;100601.09;5104976;28;20028;-70
2022/12/28 10:11:27;;;;;;;28.60;16.52;;;;;;;10.02;63.11;100608.28;5106795;27;20027;-73
2022/12/28 10:13:58;;;;;;;28.88;14.50;;;;;;;10.07;63.68;100591.44;5111160;27;20024;-71
2022/12/28 10:16:28;;;;;;;25.67;15.50;;;;;;;9.90;64.52;100600.34;5102328;28;20023;-68
2022/12/28 10:18:54;;;;;;;20.47;13.53;;;;;;;10.01;63.49;100589.84;5105430;28;20032;-70
2022/12/28 10:21:21;;;;;;;28.25;14.45;;;;;;;9.92;63.02;100593.34;5104070;28;20452;-69
2022/12/28 10:23:52;;;;;;;33.50;19.20;;;;;;;9.97;62.93;100596.03;5106983;28;20031;-69
2022/12/28 10:26:19;;;;;;;35.30;20.88;;;;;;;10.04;63.83;100597.63;5109033;28;20512;-72
2022/12/28 10:28:59;;;;;;;35.30;18.17;;;;;;;9.85;63.39;100595.66;5107712;28;20087;-72
2022/12/28 10:31:35;;;;;;;33.28;16.20;;;;;;;9.81;61.34;100597.41;5104783;28;20118;-73
2022/12/28 10:34:01;;;;;;;22.00;12.48;;;;;;;9.81;61.14;100594.63;5104107;28;20107;-76
2022/12/28 10:36:33;;;;;;;25.95;13.40;;;;;;;9.83;61.34;100584.81;5104516;28;20031;-75
2022/12/28 10:38:59;;;;;;;28.20;13.57;;;;;;;9.83;61.00;100586.75;5101191;28;20023;-74
2022/12/28 10:41:35;;;;;;;28.85;13.57;;;;;;;9.81;61.99;100587.06;5088161;28;20028;-70
2022/12/28 10:44:23;;;;;;;26.13;12.77;;;;;;;9.79;61.76;100582.94;5107568;28;20023;-71
2022/12/28 10:46:56;;;;;;;23.40;13.73;;;;;;;9.72;61.57;100591.69;5098600;28;20380;-69
2022/12/28 10:49:24;;;;;;;24.35;13.55;;;;;;;9.82;61.11;100583.13;5088781;28;20066;-69
2022/12/28 10:52:17;;;;;;;25.30;13.60;;;;;;;9.94;60.91;100588.25;5092258;28;20027;-71
2022/12/28 10:54:42;;;;;;;33.03;15.98;;;;;;;9.65;61.28;100582.84;5115898;27;20135;-72
2022/12/28 10:57:18;;;;;;;28.98;14.27;;;;;;;9.74;61.11;100586.63;5102590;28;20035;-71
2022/12/28 10:59:45;;;;;;;49.35;16.98;;;;;;;9.51;61.54;100593.91;5102572;28;20562;-71
2022/12/28 11:02:31;;;;;;;24.85;13.27;;;;;;;9.51;63.25;100593.91;5102886;28;20023;-71
2022/12/28 11:05:04;;;;;;;55.85;12.52;;;;;;;9.49;63.73;100585.84;5121565;28;20515;-71
2022/12/28 11:07:37;;;;;;;26.83;12.25;;;;;;;9.37;64.75;100591.88;5103848;28;20060;-71
2022/12/28 11:10:26;;;;;;;20.75;13.13;;;;;;;9.32;66.83;100597.53;5092750;28;20035;-71
2022/12/28 11:12:54;;;;;;;23.13;14.25;;;;;;;9.15;67.85;100586.84;5095776;28;20024;-72
2022/12/28 11:15:23;;;;;;;23.98;15.18;;;;;;;9.02;67.50;100587.56;5097644;28;20032;-71
2022/12/28 11:18:01;;;;;;;28.92;14.90;;;;;;;9.00;67.39;100593.44;5092992;28;20059;-71
2022/12/28 11:20:40;;;;;;;32.15;13.55;;;;;;;8.92;67.77;100589.34;5098206;28;20491;-71
2022/12/28 11:23:08;;;;;;;30.88;17.10;;;;;;;9.06;66.94;100597.84;5100905;28;20417;-73
2022/12/28 11:25:35;;;;;;;22.50;12.55;;;;;;;8.83;67.34;100594.75;5101271;28;20030;-71
2022/12/28 11:28:05;;;;;;;19.85;12.93;;;;;;;8.75;68.46;100588.97;5099863;28;20083;-71
2022/12/28 11:30:31;;;;;;;21.80;12.65;;;;;;;8.74;68.95;100582.56;5111088;28;20051;-71
2022/12/28 11:33:00;;;;;;;18.58;12.25;;;;;;;8.70;68.56;100587.91;5104649;28;20114;-71
2022/12/28 11:35:29;;;;;;;19.45;10.48;;;;;;;8.73;67.79;100586.50;5094771;28;20034;-71
2022/12/28 11:37:58;;;;;;;23.03;11.93;;;;;;;8.71;68.57;100580.38;5105228;28;20042;-71
2022/12/28 11:40:42;;;;;;;16.20;10.20;;;;;;;8.56;68.27;100581.38;5099841;27;20445;-71
2022/12/28 11:43:38;;;;;;;15.63;10.13;;;;;;;8.55;68.42;100577.72;5104734;28;20038;-71
2022/12/28 11:46:05;;;;;;;18.10;9.85;;;;;;;8.67;68.45;100584.88;5097587;28;20020;-71
2022/12/28 11:48:41;;;;;;;15.30;9.00;;;;;;;8.65;68.42;100573.19;5100272;28;20863;-71
2022/12/28 11:51:34;;;;;;;15.68;9.23;;;;;;;8.63;68.84;100581.84;5099679;28;20019;-71
2022/12/28 11:54:00;;;;;;;16.45;9.55;;;;;;;8.61;68.54;100578.50;5092664;28;20146;-71
2022/12/28 11:56:46;;;;;;;16.95;10.30;;;;;;;8.62;68.60;100584.94;5097141;28;20031;-71
2022/12/28 11:59:33;;;;;;;24.00;11.00;;;;;;;8.70;67.93;100587.09;5090645;28;20071;-72
2022/12/28 12:02:22;;;;;;;32.53;16.55;;;;;;;8.54;67.75;100584.44;5098511;28;20026;-71